createdAt,value
2023-02-07T00:00:51.834Z,12.23
2023-02-07T00:03:18.561Z,12.08
2023-02-07T00:05:45.274Z,11.91
2023-02-07T00:08:11.897Z,12.39
2023-02-07T00:10:38.530Z,13.31
2023-02-07T00:13:06.383Z,12.34
2023-02-07T00:15:33.137Z,12.66
2023-02-07T00:17:59.762Z,12.60
2023-02-07T00:20:26.392Z,13.29
2023-02-07T00:22:53.026Z,11.90
2023-02-07T00:25:19.670Z,12.03
2023-02-07T00:27:46.508Z,12.80
2023-02-07T00:30:13.410Z,12.94
2023-02-07T00:32:40.070Z,12.66
2023-02-07T00:35:07.310Z,13.42
2023-02-07T00:37:33.963Z,13.73
2023-02-07T00:40:00.603Z,12.87
2023-02-07T00:42:27.244Z,12.10
2023-02-07T00:44:53.901Z,12.27
2023-02-07T00:47:20.551Z,11.77
2023-02-07T00:49:47.165Z,11.80
2023-02-07T00:52:13.830Z,11.75
2023-02-07T00:54:40.479Z,12.81
2023-02-07T00:57:07.136Z,11.95
2023-02-07T00:59:33.813Z,12.13
2023-02-07T01:02:00.465Z,11.97
2023-02-07T01:04:27.150Z,11.72
2023-02-07T01:06:53.808Z,12.08
2023-02-07T01:09:20.473Z,12.16
2023-02-07T01:11:47.102Z,11.25
2023-02-07T01:14:13.735Z,10.63
2023-02-07T01:16:40.358Z,11.32
2023-02-07T01:19:08.370Z,10.61
2023-02-07T01:21:35.069Z,10.66
2023-02-07T01:24:01.789Z,10.82
2023-02-07T01:26:28.449Z,11.09
2023-02-07T01:28:55.379Z,11.54
2023-02-07T01:31:22.228Z,11.05
2023-02-07T01:33:53.235Z,10.91
2023-02-07T01:36:19.877Z,9.64
2023-02-07T01:38:46.530Z,10.20
2023-02-07T01:41:13.437Z,9.90
2023-02-07T01:44:08.915Z,9.55
2023-02-07T01:46:35.743Z,10.47
2023-02-07T01:49:05.234Z,10.18
2023-02-07T01:51:31.860Z,10.19
2023-02-07T01:54:00.454Z,10.29
2023-02-07T01:56:32.050Z,9.66
2023-02-07T01:58:59.942Z,9.05
2023-02-07T02:01:26.664Z,9.21
2023-02-07T02:03:56.321Z,9.75
2023-02-07T02:06:24.002Z,9.50
2023-02-07T02:08:51.372Z,9.24
2023-02-07T02:11:43.718Z,10.28
2023-02-07T02:14:23.909Z,9.38
2023-02-07T02:17:21.797Z,9.11
2023-02-07T02:25:53.460Z,9.51
2023-02-07T02:28:54.736Z,9.07
2023-02-07T02:31:40.659Z,9.00
2023-02-07T02:34:11.078Z,9.61
2023-02-07T02:36:43.413Z,9.74
2023-02-07T02:39:31.454Z,9.99
2023-02-07T02:42:05.564Z,8.81
2023-02-07T02:44:41.856Z,9.32
2023-02-07T02:47:08.565Z,9.12
2023-02-07T02:49:35.180Z,9.33
2023-02-07T02:52:01.838Z,9.98
2023-02-07T02:54:32.182Z,10.26
2023-02-07T02:56:58.677Z,10.07
2023-02-07T02:59:32.311Z,10.97
2023-02-07T03:02:21.369Z,9.92
2023-02-07T03:05:02.455Z,10.86
2023-02-07T03:07:56.950Z,10.32
2023-02-07T03:10:30.678Z,9.36
2023-02-07T03:13:23.485Z,10.72
2023-02-07T03:16:09.938Z,9.88
2023-02-07T03:19:01.013Z,10.70
2023-02-07T03:21:48.421Z,9.98
2023-02-07T03:24:32.087Z,10.74
2023-02-07T03:27:00.351Z,10.57
2023-02-07T03:29:27.734Z,10.60
2023-02-07T03:31:55.812Z,11.07
2023-02-07T03:34:24.476Z,10.66
2023-02-07T03:37:17.059Z,11.13
2023-02-07T03:39:43.679Z,11.90
2023-02-07T03:42:16.001Z,11.87
2023-02-07T03:44:42.645Z,11.01
2023-02-07T03:47:09.276Z,11.63
2023-02-07T03:49:35.896Z,11.62
2023-02-07T03:52:02.557Z,12.73
2023-02-07T03:54:29.220Z,12.76
2023-02-07T03:56:55.875Z,12.11
2023-02-07T03:59:22.513Z,12.42
2023-02-07T04:01:49.295Z,13.23
2023-02-07T04:04:15.974Z,12.36
2023-02-07T04:06:42.715Z,14.47
2023-02-07T04:09:11.627Z,14.72
2023-02-07T04:11:38.545Z,14.24
2023-02-07T04:14:05.382Z,14.90
2023-02-07T04:16:32.059Z,13.12
2023-02-07T04:18:58.738Z,13.08
2023-02-07T04:21:25.419Z,12.20
2023-02-07T04:23:52.086Z,12.86
2023-02-07T04:26:18.722Z,13.02
2023-02-07T04:28:45.350Z,14.54
2023-02-07T04:31:12.083Z,14.09
2023-02-07T04:33:38.723Z,14.49
2023-02-07T04:36:05.824Z,14.95
2023-02-07T04:38:32.497Z,14.45
2023-02-07T04:40:59.973Z,15.59
2023-02-07T04:43:26.797Z,15.10
2023-02-07T04:45:53.524Z,15.26
2023-02-07T04:48:20.214Z,15.69
2023-02-07T04:50:46.878Z,15.45
2023-02-07T04:53:13.534Z,15.92
2023-02-07T04:55:40.352Z,16.29
2023-02-07T04:58:07.121Z,15.91
2023-02-07T05:00:33.793Z,16.42
2023-02-07T05:03:00.981Z,15.98
2023-02-07T05:05:27.680Z,15.31
2023-02-07T05:07:54.402Z,15.56
2023-02-07T05:10:21.043Z,15.64
2023-02-07T05:12:47.722Z,15.06
2023-02-07T05:15:14.373Z,16.42
2023-02-07T05:17:41.017Z,16.84
2023-02-07T05:20:08.179Z,16.34
2023-02-07T05:22:34.848Z,17.36
2023-02-07T05:25:01.474Z,16.95
2023-02-07T05:27:28.121Z,16.23
2023-02-07T05:29:54.746Z,17.27
2023-02-07T05:32:21.367Z,17.70
2023-02-07T05:34:48.007Z,17.27
2023-02-07T05:37:14.670Z,16.59
2023-02-07T05:39:41.351Z,16.94
2023-02-07T05:42:08.125Z,15.85
2023-02-07T05:44:35.980Z,16.28
2023-02-07T05:47:02.627Z,16.98
2023-02-07T05:49:29.272Z,17.67
2023-02-07T05:51:55.926Z,16.35
2023-02-07T05:54:22.710Z,15.84
2023-02-07T05:56:49.342Z,17.07
2023-02-07T05:59:16.094Z,18.01
2023-02-07T06:01:42.756Z,17.41
2023-02-07T06:04:09.412Z,18.11
2023-02-07T06:06:36.143Z,17.41
2023-02-07T06:09:02.776Z,16.73
2023-02-07T06:11:29.407Z,17.58
2023-02-07T06:13:56.065Z,17.92
2023-02-07T06:16:22.716Z,17.70
2023-02-07T06:18:49.505Z,17.90
2023-02-07T06:21:16.165Z,17.68
2023-02-07T06:23:42.804Z,17.06
2023-02-07T06:26:09.443Z,18.14
2023-02-07T06:28:36.108Z,17.24
2023-02-07T06:31:02.812Z,17.08
2023-02-07T06:33:29.507Z,17.30
2023-02-07T06:35:56.175Z,18.03
2023-02-07T06:38:22.861Z,17.95
2023-02-07T06:40:49.501Z,18.07
2023-02-07T06:43:16.140Z,18.55
2023-02-07T06:45:42.838Z,16.84
2023-02-07T06:48:09.534Z,18.71
2023-02-07T06:50:36.418Z,18.54
2023-02-07T06:53:03.343Z,18.22
2023-02-07T06:55:35.537Z,19.00
2023-02-07T06:58:02.167Z,18.17
2023-02-07T07:00:28.784Z,17.56
2023-02-07T07:02:55.467Z,17.58
2023-02-07T07:05:22.230Z,18.08
2023-02-07T07:07:48.878Z,19.05
2023-02-07T07:10:15.593Z,18.79
2023-02-07T07:12:42.282Z,18.46
2023-02-07T07:15:09.190Z,17.76
2023-02-07T07:17:35.841Z,18.58
2023-02-07T07:20:02.529Z,19.06
2023-02-07T07:22:29.176Z,17.09
2023-02-07T07:24:56.184Z,15.46
2023-02-07T07:27:22.898Z,16.99
2023-02-07T07:29:49.550Z,17.28
2023-02-07T07:32:32.107Z,16.90
2023-02-07T07:35:00.233Z,16.83
2023-02-07T07:37:26.902Z,16.57
2023-02-07T07:39:53.606Z,15.97
2023-02-07T07:42:20.271Z,15.91
2023-02-07T07:44:46.997Z,16.30
2023-02-07T07:47:13.663Z,14.94
2023-02-07T07:49:40.556Z,14.88
2023-02-07T07:52:07.397Z,15.48
2023-02-07T07:54:34.049Z,15.16
2023-02-07T07:57:00.757Z,16.20
2023-02-07T07:59:27.455Z,14.71
2023-02-07T08:01:54.169Z,14.68
2023-02-07T08:04:20.829Z,14.02
2023-02-07T08:06:47.496Z,14.68
2023-02-07T08:09:14.158Z,14.72
2023-02-07T08:11:40.811Z,13.67
2023-02-07T08:14:07.729Z,12.38
2023-02-07T08:16:34.387Z,11.33
2023-02-07T08:19:01.026Z,11.45
2023-02-07T08:21:27.684Z,10.66
2023-02-07T08:23:57.420Z,11.53
2023-02-07T08:26:24.045Z,11.25
2023-02-07T08:28:50.674Z,10.53
2023-02-07T08:31:17.507Z,9.90
2023-02-07T08:33:44.360Z,10.05
2023-02-07T08:36:11.495Z,10.45
2023-02-07T08:38:38.273Z,9.61
2023-02-07T08:41:05.268Z,10.17
2023-02-07T08:43:32.002Z,9.32
2023-02-07T08:45:58.731Z,10.25
2023-02-07T08:48:25.438Z,9.69
2023-02-07T08:50:52.108Z,9.36
2023-02-07T08:53:18.770Z,9.24
2023-02-07T08:55:45.547Z,10.87
2023-02-07T08:58:12.183Z,10.49
2023-02-07T09:00:39.689Z,10.28
2023-02-07T09:03:06.492Z,10.53
2023-02-07T09:05:33.166Z,10.38
2023-02-07T09:08:00.770Z,10.11
2023-02-07T09:10:27.422Z,9.29
2023-02-07T09:12:54.075Z,9.05
2023-02-07T09:15:20.752Z,7.99
2023-02-07T09:17:47.470Z,8.58
2023-02-07T09:20:14.145Z,7.74
2023-02-07T09:22:40.803Z,8.17
2023-02-07T09:25:07.578Z,9.84
2023-02-07T09:27:34.202Z,9.65
2023-02-07T09:30:00.862Z,9.29
2023-02-07T09:32:27.325Z,9.86
2023-02-07T09:34:53.975Z,10.66
2023-02-07T09:37:20.641Z,10.44
2023-02-07T09:39:47.303Z,10.57
2023-02-07T09:42:22.403Z,10.61
2023-02-07T09:44:59.405Z,10.14
2023-02-07T09:47:26.346Z,10.28
2023-02-07T09:49:57.519Z,10.50
2023-02-07T09:52:31.340Z,10.58
2023-02-07T09:54:58.255Z,10.70
2023-02-07T09:57:36.786Z,10.63
2023-02-07T10:00:08.060Z,11.08
2023-02-07T10:02:38.620Z,11.56
2023-02-07T10:05:16.448Z,11.37
2023-02-07T10:07:46.442Z,12.14
2023-02-07T10:10:41.295Z,12.02
2023-02-07T10:13:32.778Z,13.01
2023-02-07T10:16:13.221Z,12.77
2023-02-07T10:18:48.741Z,13.96
2023-02-07T10:21:54.762Z,14.32
2023-02-07T10:24:27.520Z,14.08
2023-02-07T10:26:57.313Z,13.86
2023-02-07T10:29:36.018Z,14.88
2023-02-07T10:32:08.333Z,15.56
2023-02-07T10:34:35.818Z,16.12
2023-02-07T10:37:06.179Z,15.59
2023-02-07T10:39:37.718Z,16.12
2023-02-07T10:42:04.403Z,15.23
2023-02-07T10:44:31.085Z,15.54
2023-02-07T10:47:01.047Z,15.61
2023-02-07T10:49:29.439Z,16.42
2023-02-07T10:51:57.780Z,15.96
2023-02-07T10:54:24.479Z,16.40
2023-02-07T10:56:54.642Z,17.37
2023-02-07T10:59:42.192Z,17.31
2023-02-07T11:02:28.759Z,16.52
2023-02-07T11:04:56.196Z,17.26
2023-02-07T11:07:22.907Z,17.51
2023-02-07T11:09:49.631Z,18.38
2023-02-07T11:12:24.056Z,17.02
2023-02-07T11:15:06.157Z,17.02
2023-02-07T11:17:32.929Z,17.05
2023-02-07T11:20:05.595Z,17.34
2023-02-07T11:22:32.227Z,16.81
2023-02-07T11:25:05.461Z,16.78
2023-02-07T11:27:39.732Z,17.11
2023-02-07T11:30:17.720Z,17.90
2023-02-07T11:32:44.369Z,17.57
2023-02-07T11:35:20.574Z,18.09
2023-02-07T11:37:48.754Z,17.65
2023-02-07T11:40:25.264Z,18.58
2023-02-07T11:42:59.107Z,18.47
2023-02-07T11:45:26.085Z,18.42
2023-02-07T11:47:55.942Z,18.29
2023-02-07T11:50:27.320Z,20.08
2023-02-07T11:52:55.849Z,18.18
2023-02-07T11:55:25.772Z,18.34
2023-02-07T11:57:55.183Z,19.22
2023-02-07T12:00:26.412Z,19.61
2023-02-07T12:03:02.465Z,19.09
2023-02-07T12:05:43.091Z,19.32
2023-02-07T12:08:12.888Z,19.12
2023-02-07T12:10:39.941Z,18.50
2023-02-07T12:13:30.472Z,19.81
2023-02-07T12:16:34.290Z,18.81
2023-02-07T12:19:32.211Z,19.37
2023-02-07T12:22:17.727Z,18.79
2023-02-07T12:24:54.255Z,18.24
2023-02-07T12:27:20.927Z,18.98
2023-02-07T12:30:08.953Z,20.87
2023-02-07T12:33:02.356Z,19.01
2023-02-07T12:35:57.001Z,18.54
2023-02-07T12:38:25.232Z,19.62
2023-02-07T12:40:55.327Z,19.07
2023-02-07T12:43:27.039Z,18.94
2023-02-07T12:46:02.833Z,18.78
2023-02-07T12:49:03.102Z,19.09
2023-02-07T12:51:42.912Z,19.80
2023-02-07T12:54:39.980Z,19.00
2023-02-07T12:57:18.977Z,20.72
2023-02-07T13:00:02.167Z,20.27
2023-02-07T13:02:40.840Z,19.56
2023-02-07T13:05:07.439Z,18.53
2023-02-07T13:07:45.763Z,18.72
2023-02-07T13:10:18.208Z,19.11
2023-02-07T13:12:57.368Z,19.33
2023-02-07T13:15:52.383Z,19.40
2023-02-07T13:18:21.808Z,19.38
2023-02-07T13:21:07.057Z,19.11
2023-02-07T13:23:35.918Z,20.44
2023-02-07T13:26:09.107Z,19.43
2023-02-07T13:28:56.994Z,19.05
2023-02-07T13:31:41.534Z,18.80
2023-02-07T13:34:16.991Z,19.77
2023-02-07T13:36:47.748Z,18.17
2023-02-07T13:39:26.252Z,18.27
2023-02-07T13:42:01.953Z,18.27
2023-02-07T13:44:34.717Z,18.50
2023-02-07T13:47:52.472Z,18.31
2023-02-07T13:50:37.376Z,18.79
2023-02-07T13:53:22.630Z,18.25
2023-02-07T13:55:49.296Z,20.46
2023-02-07T13:58:51.111Z,19.67
2023-02-07T14:01:24.597Z,18.43
2023-02-07T14:04:05.611Z,19.24
2023-02-07T14:06:36.412Z,18.83
2023-02-07T14:09:15.320Z,19.20
2023-02-07T14:11:46.623Z,18.00
2023-02-07T14:14:29.548Z,17.88
2023-02-07T14:17:00.973Z,18.96
2023-02-07T14:19:39.714Z,20.00
2023-02-07T14:22:28.645Z,19.96
2023-02-07T14:24:58.178Z,19.20
2023-02-07T14:27:31.686Z,19.99
2023-02-07T14:30:17.074Z,20.05
2023-02-07T14:33:11.654Z,18.06
2023-02-07T14:35:45.017Z,19.80
2023-02-07T14:38:22.275Z,21.01
2023-02-07T14:40:54.374Z,18.11
2023-02-07T14:44:08.120Z,18.57
2023-02-07T14:46:42.794Z,20.15
2023-02-07T14:49:31.792Z,17.35
2023-02-07T14:52:22.601Z,18.44
2023-02-07T14:55:12.804Z,20.22
2023-02-07T14:57:50.943Z,20.13
2023-02-07T15:00:17.512Z,19.76
2023-02-07T15:02:49.792Z,17.92
2023-02-07T15:05:19.087Z,18.27
2023-02-07T15:07:46.195Z,19.86
2023-02-07T15:10:23.530Z,18.12
2023-02-07T15:12:51.116Z,17.17
2023-02-07T15:15:28.974Z,19.20
2023-02-07T15:17:57.941Z,19.04
2023-02-07T15:20:29.833Z,18.21
2023-02-07T15:22:56.494Z,19.04
2023-02-07T15:25:23.262Z,18.31
2023-02-07T15:28:02.166Z,17.90
2023-02-07T15:30:28.974Z,17.86
2023-02-07T15:32:55.892Z,17.95
2023-02-07T15:35:26.406Z,18.79
2023-02-07T15:37:53.162Z,19.61
2023-02-07T15:40:22.411Z,18.84
2023-02-07T15:42:53.469Z,18.81
2023-02-07T15:45:27.429Z,17.93
2023-02-07T15:47:58.716Z,18.29
2023-02-07T15:50:26.049Z,18.56
2023-02-07T15:52:54.129Z,18.24
2023-02-07T15:55:37.917Z,18.24
2023-02-07T15:58:05.178Z,19.31
2023-02-07T16:00:36.176Z,17.32
2023-02-07T16:03:07.936Z,17.26
2023-02-07T16:05:38.236Z,18.96
2023-02-07T16:08:27.972Z,18.33
2023-02-07T16:10:54.828Z,18.48
2023-02-07T16:13:21.981Z,17.82
2023-02-07T16:15:58.957Z,19.37
2023-02-07T16:18:44.133Z,17.36
2023-02-07T16:21:13.627Z,18.70
2023-02-07T16:23:40.309Z,18.84
2023-02-07T16:26:06.986Z,19.16
2023-02-07T16:28:33.735Z,18.80
2023-02-07T16:31:00.453Z,22.41
2023-02-07T16:33:27.166Z,28.04
2023-02-07T16:35:53.835Z,23.08
2023-02-07T16:38:20.591Z,18.09
2023-02-07T16:40:47.707Z,21.05
2023-02-07T16:43:43.634Z,21.60
2023-02-07T16:46:10.309Z,20.69
2023-02-07T16:48:36.996Z,18.42
2023-02-07T16:51:03.953Z,17.54
2023-02-07T16:53:30.672Z,16.72
2023-02-07T16:55:57.308Z,17.50
2023-02-07T16:58:31.079Z,17.55
2023-02-07T17:00:57.782Z,17.53
2023-02-07T17:03:24.584Z,18.84
2023-02-07T17:05:51.234Z,18.63
2023-02-07T17:08:19.773Z,17.49
2023-02-07T17:10:48.854Z,16.16
2023-02-07T17:13:15.503Z,17.59
2023-02-07T17:15:42.169Z,17.27
2023-02-07T17:18:10.419Z,18.76
2023-02-07T17:20:37.230Z,17.10
2023-02-07T17:23:04.048Z,17.42
2023-02-07T17:25:30.797Z,19.71
2023-02-07T17:27:57.726Z,18.66
2023-02-07T17:30:45.727Z,17.84
2023-02-07T17:33:12.387Z,20.14
2023-02-07T17:35:39.074Z,19.37
2023-02-07T17:38:05.891Z,19.69
2023-02-07T17:40:34.472Z,18.82
2023-02-07T17:43:01.127Z,18.84
2023-02-07T17:45:28.266Z,18.83
2023-02-07T17:47:54.965Z,20.29
2023-02-07T17:50:27.095Z,20.12
2023-02-07T17:52:53.756Z,20.51
2023-02-07T17:55:20.399Z,18.60
2023-02-07T17:57:47.042Z,20.11
2023-02-07T18:00:17.973Z,21.56
2023-02-07T18:02:47.331Z,18.89
2023-02-07T18:05:14.414Z,19.21
2023-02-07T18:07:41.066Z,19.34
2023-02-07T18:10:07.937Z,20.07
2023-02-07T18:12:34.693Z,21.38
2023-02-07T18:15:01.330Z,20.71
2023-02-07T18:17:27.973Z,23.17
2023-02-07T18:19:54.634Z,22.59
2023-02-07T18:22:21.290Z,20.68
2023-02-07T18:24:47.944Z,20.49
2023-02-07T18:27:14.582Z,19.14
2023-02-07T18:29:41.266Z,20.18
2023-02-07T18:32:07.974Z,20.24
2023-02-07T18:34:34.628Z,20.28
2023-02-07T18:37:01.291Z,20.23
2023-02-07T18:39:27.906Z,21.03
2023-02-07T18:41:54.548Z,19.67
2023-02-07T18:44:21.183Z,20.01
2023-02-07T18:46:47.801Z,19.98
2023-02-07T18:49:14.439Z,19.79
2023-02-07T18:51:41.105Z,19.43
2023-02-07T18:54:07.746Z,19.85
2023-02-07T18:56:34.415Z,19.21
2023-02-07T18:59:01.388Z,20.89
2023-02-07T19:01:28.562Z,18.89
2023-02-07T19:03:55.212Z,17.30
2023-02-07T19:06:27.248Z,17.22
2023-02-07T19:08:53.911Z,18.22
2023-02-07T19:11:20.581Z,18.53
2023-02-07T19:13:47.394Z,18.34
2023-02-07T19:16:18.832Z,18.24
2023-02-07T19:18:45.502Z,18.30
2023-02-07T19:21:22.214Z,19.76
2023-02-07T19:23:48.868Z,19.95
2023-02-07T19:26:15.642Z,19.29
2023-02-07T19:28:42.272Z,19.89
2023-02-07T19:31:10.915Z,20.19
2023-02-07T19:33:37.663Z,21.12
2023-02-07T19:36:08.916Z,21.48
2023-02-07T19:38:35.834Z,21.50
2023-02-07T19:41:05.375Z,21.92
2023-02-07T19:43:32.051Z,20.55
2023-02-07T19:45:58.674Z,21.29
2023-02-07T19:48:25.380Z,21.66
2023-02-07T19:50:59.465Z,20.97
2023-02-07T19:53:26.671Z,20.93
2023-02-07T19:55:53.328Z,21.46
2023-02-07T19:58:19.963Z,21.79
2023-02-07T20:00:46.629Z,21.24
2023-02-07T20:03:13.277Z,22.64
2023-02-07T20:05:44.037Z,21.30
2023-02-07T20:08:10.689Z,20.60
2023-02-07T20:10:41.677Z,19.79
2023-02-07T20:13:08.428Z,19.01
2023-02-07T20:15:35.163Z,19.82
2023-02-07T20:18:01.819Z,19.71
2023-02-07T20:20:28.441Z,18.82
2023-02-07T20:22:55.564Z,18.30
2023-02-07T20:25:22.305Z,21.24
2023-02-07T20:27:49.028Z,21.65
2023-02-07T20:30:15.850Z,20.27
2023-02-07T20:32:42.551Z,21.02
2023-02-07T20:35:09.173Z,21.82
2023-02-07T20:37:35.834Z,22.43
2023-02-07T20:40:02.490Z,22.54
2023-02-07T20:42:29.204Z,22.51
2023-02-07T20:44:55.837Z,23.60
2023-02-07T20:47:22.723Z,22.27
2023-02-07T20:49:49.388Z,21.13
2023-02-07T20:52:16.729Z,23.88
2023-02-07T20:54:43.381Z,24.08
2023-02-07T20:57:10.038Z,26.25
2023-02-07T20:59:36.720Z,25.05
2023-02-07T21:02:03.453Z,27.32
2023-02-07T21:04:30.137Z,26.00
2023-02-07T21:06:56.767Z,25.78
2023-02-07T21:09:23.474Z,26.94
2023-02-07T21:11:51.166Z,26.91
2023-02-07T21:14:19.954Z,26.31
2023-02-07T21:16:46.670Z,24.33
2023-02-07T21:19:13.419Z,26.57
2023-02-07T21:21:40.100Z,27.71
2023-02-07T21:24:07.191Z,28.24
2023-02-07T21:26:33.863Z,27.53
2023-02-07T21:29:01.768Z,27.97
2023-02-07T21:31:28.765Z,28.79
2023-02-07T21:33:55.591Z,29.58
2023-02-07T21:36:27.499Z,28.86
2023-02-07T21:38:54.497Z,29.85
2023-02-07T21:41:25.630Z,29.02
2023-02-07T21:43:53.978Z,28.68
2023-02-07T21:46:22.576Z,29.62
2023-02-07T21:48:50.416Z,30.52
2023-02-07T21:51:18.935Z,30.29
2023-02-07T21:53:45.566Z,30.40
2023-02-07T21:56:14.394Z,28.67
2023-02-07T21:58:41.398Z,29.43
2023-02-07T22:01:16.439Z,30.18
2023-02-07T22:03:44.221Z,28.11
2023-02-07T22:06:11.141Z,28.33
2023-02-07T22:08:38.023Z,27.07
2023-02-07T22:11:05.566Z,28.60
2023-02-07T22:13:32.574Z,28.66
2023-02-07T22:15:59.205Z,28.97
2023-02-07T22:18:25.859Z,28.53
2023-02-07T22:20:52.485Z,28.83
2023-02-07T22:23:19.157Z,28.06
2023-02-07T22:25:45.784Z,27.68
2023-02-07T22:28:12.458Z,27.75
2023-02-07T22:30:41.066Z,27.25
2023-02-07T22:33:08.418Z,25.56
2023-02-07T22:35:38.314Z,25.32
2023-02-07T22:38:04.947Z,26.25
2023-02-07T22:40:33.026Z,25.53
2023-02-07T22:42:59.697Z,22.80
2023-02-07T22:45:26.349Z,23.69
2023-02-07T22:47:52.977Z,22.69
2023-02-07T22:50:19.639Z,22.14
2023-02-07T22:52:46.286Z,20.33
2023-02-07T22:55:12.934Z,21.42
2023-02-07T22:57:39.559Z,21.09
2023-02-07T23:00:07.618Z,22.60
2023-02-07T23:02:34.302Z,20.27
2023-02-07T23:05:00.987Z,21.59
2023-02-07T23:07:27.679Z,21.66
2023-02-07T23:09:54.562Z,21.94
2023-02-07T23:12:21.328Z,22.28
2023-02-07T23:14:47.949Z,22.55
2023-02-07T23:17:14.591Z,21.66
2023-02-07T23:19:41.240Z,21.07
2023-02-07T23:22:07.922Z,22.07
2023-02-07T23:24:34.565Z,24.43
2023-02-07T23:27:01.220Z,25.57
2023-02-07T23:29:27.848Z,23.57
2023-02-07T23:31:54.524Z,22.18
2023-02-07T23:34:21.218Z,22.54
2023-02-07T23:36:47.874Z,22.10
2023-02-07T23:39:14.598Z,23.08
2023-02-07T23:41:41.231Z,24.42
2023-02-07T23:44:07.856Z,24.73
2023-02-07T23:46:34.603Z,26.00
2023-02-07T23:49:01.258Z,28.11
2023-02-07T23:51:28.004Z,28.89
2023-02-07T23:53:54.673Z,29.75
2023-02-07T23:56:21.848Z,30.49
2023-02-07T23:58:48.650Z,30.30
